ěÝzenÝ letovÚho provozu ╚eskÚ republiky
Letiste: LKTB Aktualizace: 21.10.2021 11:00:29  UTC
 METAR LKTB 21.10. 11:00 ...
METAR LKTB 211100Z 19008KT 170V230 CAVOK 12/09 Q1006 NOSIG RMK REG QNH 0997=
 TAF LKTB 21.10. 05:00 ...
TAF LKTB 210500Z 2106/2212 13008KT CAVOK      PROB30 TEMPO 2110/2115 8000 SHRA BKN035      BECMG 2109/2111 25014KT      TEMPO 2111/2118 26016G38KT      BECMG 2118/2120 24007KT      TEMPO 2200/2204 9999 BKN025      BECMG 2209/2211 25014KT=